createdAt,value
2018-07-06T00:00:05.315Z,9.53
2018-07-06T00:02:38.470Z,10.08
2018-07-06T00:05:11.546Z,10.53
2018-07-06T00:07:44.684Z,10.80
2018-07-06T00:10:17.785Z,11.70
2018-07-06T00:12:50.729Z,12.60
2018-07-06T00:15:23.874Z,12.90
2018-07-06T00:17:56.910Z,10.83
2018-07-06T00:20:30.042Z,11.03
2018-07-06T00:23:02.986Z,11.27
2018-07-06T00:25:35.799Z,11.23
2018-07-06T00:28:08.744Z,11.80
2018-07-06T00:30:41.752Z,11.28
2018-07-06T00:33:14.778Z,12.40
2018-07-06T00:35:47.811Z,12.80
2018-07-06T00:38:20.904Z,11.80
2018-07-06T00:40:53.890Z,12.53
2018-07-06T00:43:26.955Z,12.17
2018-07-06T00:45:59.978Z,11.73
2018-07-06T00:48:33.047Z,11.53
2018-07-06T00:51:05.887Z,12.40
2018-07-06T00:53:38.923Z,13.93
2018-07-06T00:56:11.894Z,14.70
2018-07-06T00:58:44.918Z,14.50
2018-07-06T01:01:17.778Z,12.90
2018-07-06T01:03:50.766Z,13.57
2018-07-06T01:06:23.892Z,13.23
2018-07-06T01:08:56.809Z,12.80
2018-07-06T01:11:29.844Z,12.40
2018-07-06T01:14:02.822Z,11.63
2018-07-06T01:16:35.924Z,12.50
2018-07-06T01:19:08.954Z,11.73
2018-07-06T01:21:42.051Z,11.77
2018-07-06T01:24:14.972Z,10.90
2018-07-06T01:26:48.049Z,10.60
2018-07-06T01:29:20.900Z,10.47
2018-07-06T01:31:53.725Z,11.70
2018-07-06T01:34:26.615Z,11.90
2018-07-06T01:36:59.606Z,11.18
2018-07-06T01:39:32.600Z,11.75
2018-07-06T01:42:05.510Z,11.20
2018-07-06T01:44:38.289Z,11.40
2018-07-06T01:47:11.360Z,10.17
2018-07-06T01:49:44.437Z,8.30
2018-07-06T01:52:17.528Z,8.10
2018-07-06T01:54:50.541Z,8.23
2018-07-06T01:57:23.366Z,7.30
2018-07-06T01:59:56.421Z,7.30
2018-07-06T02:02:29.568Z,6.83
2018-07-06T02:05:02.464Z,6.67
2018-07-06T02:07:35.475Z,6.35
2018-07-06T02:10:08.418Z,6.58
2018-07-06T02:12:41.429Z,6.87
2018-07-06T02:15:14.530Z,6.67
2018-07-06T02:17:47.345Z,6.70
2018-07-06T02:20:20.309Z,7.28
2018-07-06T02:22:53.267Z,7.20
2018-07-06T02:25:26.176Z,7.35
2018-07-06T02:27:59.265Z,7.80
2018-07-06T02:30:32.303Z,7.97
2018-07-06T02:33:05.397Z,7.58
2018-07-06T02:35:38.345Z,6.83
2018-07-06T02:38:11.454Z,7.00
2018-07-06T02:40:44.415Z,8.25
2018-07-06T02:43:17.400Z,7.08
2018-07-06T02:45:50.305Z,7.37
2018-07-06T02:48:23.335Z,7.75
2018-07-06T02:50:56.393Z,8.05
2018-07-06T02:53:29.345Z,7.40
2018-07-06T02:56:02.407Z,8.35
2018-07-06T02:58:35.487Z,8.00
2018-07-06T03:01:08.496Z,8.78
2018-07-06T03:03:41.853Z,7.50
2018-07-06T03:06:14.892Z,7.75
2018-07-06T03:08:47.733Z,7.22
2018-07-06T03:11:20.870Z,6.90
2018-07-06T03:13:53.829Z,7.03
2018-07-06T03:16:26.842Z,6.55
2018-07-06T03:18:59.834Z,7.42
2018-07-06T03:21:32.725Z,7.08
2018-07-06T03:24:05.634Z,6.42
2018-07-06T03:26:38.581Z,6.70
2018-07-06T03:29:11.653Z,7.20
2018-07-06T03:31:44.685Z,6.60
2018-07-06T03:34:17.602Z,6.17
2018-07-06T03:36:50.575Z,6.58
2018-07-06T03:39:23.560Z,5.65
2018-07-06T03:41:56.427Z,7.40
2018-07-06T03:44:29.484Z,6.33
2018-07-06T03:47:02.354Z,6.08
2018-07-06T03:49:35.359Z,5.90
2018-07-06T03:52:08.449Z,7.15
2018-07-06T03:54:41.513Z,7.00
2018-07-06T03:57:14.500Z,5.97
2018-07-06T03:59:48.323Z,6.60
2018-07-06T04:02:21.268Z,6.20
2018-07-06T04:04:54.197Z,5.60
2018-07-06T04:07:27.152Z,6.28
2018-07-06T04:10:00.181Z,6.10
2018-07-06T04:12:33.100Z,6.50
2018-07-06T04:15:05.861Z,6.42
2018-07-06T04:17:38.911Z,6.57
2018-07-06T04:20:11.786Z,7.87
2018-07-06T04:22:44.834Z,6.30
2018-07-06T04:25:17.838Z,6.30
2018-07-06T04:27:51.289Z,7.35
2018-07-06T04:30:24.342Z,7.20
2018-07-06T04:32:57.262Z,6.73
2018-07-06T04:35:30.394Z,7.67
2018-07-06T04:38:03.344Z,7.77
2018-07-06T04:40:36.435Z,7.62
2018-07-06T04:43:09.342Z,7.20
2018-07-06T04:45:42.438Z,7.20
2018-07-06T04:48:15.403Z,6.90
2018-07-06T04:50:48.313Z,7.00
2018-07-06T04:53:21.304Z,7.63
2018-07-06T04:55:54.213Z,7.33
2018-07-06T04:58:27.262Z,7.80
2018-07-06T05:01:00.458Z,7.55
2018-07-06T05:03:33.510Z,6.40
2018-07-06T05:06:06.318Z,7.45
2018-07-06T05:08:39.108Z,7.43
2018-07-06T05:11:12.246Z,7.40
2018-07-06T05:13:45.279Z,7.40
2018-07-06T05:16:18.334Z,7.50
2018-07-06T05:18:51.172Z,7.33
2018-07-06T05:21:24.187Z,8.80
2018-07-06T05:23:57.097Z,7.57
2018-07-06T05:26:30.171Z,8.60
2018-07-06T05:29:03.108Z,8.00
2018-07-06T05:31:36.119Z,8.90
2018-07-06T05:34:08.982Z,8.17
2018-07-06T05:36:42.095Z,10.10
2018-07-06T05:39:15.026Z,9.60
2018-07-06T05:41:48.053Z,10.03
2018-07-06T05:44:21.142Z,10.82
2018-07-06T05:46:54.251Z,9.90
2018-07-06T05:49:27.185Z,10.40
2018-07-06T05:52:00.262Z,9.37
2018-07-06T05:54:33.375Z,9.63
2018-07-06T05:57:06.416Z,8.70
2018-07-06T05:59:39.398Z,9.50
2018-07-06T06:02:12.279Z,8.90
2018-07-06T06:04:45.408Z,9.05
2018-07-06T06:07:18.356Z,8.07
2018-07-06T06:09:45.710Z,8.65
2018-07-06T06:12:13.125Z,8.65
2018-07-06T06:14:40.513Z,9.03
2018-07-06T06:17:07.962Z,8.95
2018-07-06T06:19:35.358Z,8.68
2018-07-06T06:22:02.758Z,8.93
2018-07-06T06:24:30.127Z,9.97
2018-07-06T06:26:57.482Z,8.87
2018-07-06T06:29:24.883Z,9.17
2018-07-06T06:31:52.245Z,9.50
2018-07-06T06:34:19.691Z,10.00
2018-07-06T06:36:47.132Z,10.47
2018-07-06T06:39:14.502Z,9.50
2018-07-06T06:41:41.924Z,8.90
2018-07-06T06:44:09.415Z,9.10
2018-07-06T06:46:36.822Z,10.77
2018-07-06T06:49:04.451Z,10.20
2018-07-06T06:51:31.862Z,10.83
2018-07-06T06:53:59.209Z,10.47
2018-07-06T06:56:26.631Z,9.80
2018-07-06T06:58:54.088Z,10.77
2018-07-06T07:01:21.499Z,10.53
2018-07-06T07:03:48.922Z,9.40
2018-07-06T07:06:16.343Z,10.07
2018-07-06T07:08:43.769Z,11.50
2018-07-06T07:11:11.126Z,11.10
2018-07-06T07:13:38.554Z,9.73
2018-07-06T07:16:05.952Z,10.10
2018-07-06T07:18:33.381Z,10.20
2018-07-06T07:21:00.822Z,11.07
2018-07-06T07:23:28.264Z,11.00
2018-07-06T07:25:55.661Z,11.90
2018-07-06T07:28:23.147Z,11.80
2018-07-06T07:30:50.573Z,10.87
2018-07-06T07:33:17.963Z,10.63
2018-07-06T07:35:45.348Z,10.50
2018-07-06T07:38:12.776Z,11.10
2018-07-06T07:40:40.186Z,11.77
2018-07-06T07:43:07.535Z,10.90
2018-07-06T07:45:35.029Z,10.87
2018-07-06T07:48:02.489Z,11.30
2018-07-06T07:50:29.867Z,10.50
2018-07-06T07:53:02.978Z,10.60
2018-07-06T07:55:30.919Z,11.40
2018-07-06T07:57:58.339Z,13.20
2018-07-06T08:00:25.873Z,12.33
2018-07-06T08:02:53.263Z,12.50
2018-07-06T08:05:20.686Z,12.13
2018-07-06T08:07:48.118Z,13.77
2018-07-06T08:10:15.524Z,13.27
2018-07-06T08:12:42.925Z,14.90
2018-07-06T08:15:10.359Z,13.87
2018-07-06T08:17:37.738Z,14.20
2018-07-06T08:20:05.119Z,14.13
2018-07-06T08:22:32.524Z,13.90
2018-07-06T08:24:59.950Z,14.27
2018-07-06T08:27:27.301Z,13.40
2018-07-06T08:29:54.760Z,11.90
2018-07-06T08:32:22.137Z,11.60
2018-07-06T08:34:55.216Z,12.70
2018-07-06T08:37:33.383Z,12.80
2018-07-06T08:40:00.813Z,11.90
2018-07-06T08:42:29.517Z,13.20
2018-07-06T08:44:57.624Z,11.97
2018-07-06T08:47:25.025Z,12.63
2018-07-06T08:49:52.798Z,12.10
2018-07-06T08:52:20.162Z,10.40
2018-07-06T08:54:48.346Z,12.43
2018-07-06T08:57:15.727Z,11.83
2018-07-06T08:59:43.062Z,10.97
2018-07-06T09:02:10.427Z,10.60
2018-07-06T09:04:37.829Z,10.23
2018-07-06T09:07:05.162Z,10.57
2018-07-06T09:09:32.535Z,9.43
2018-07-06T09:12:00.021Z,10.07
2018-07-06T09:14:27.411Z,9.60
2018-07-06T09:16:54.878Z,10.47
2018-07-06T09:19:22.306Z,11.00
2018-07-06T09:21:50.095Z,11.60
2018-07-06T09:24:17.516Z,10.80
2018-07-06T09:26:44.890Z,11.40
2018-07-06T09:29:12.638Z,11.17
2018-07-06T09:31:40.066Z,10.77
2018-07-06T09:34:07.615Z,10.70
2018-07-06T09:36:35.225Z,10.50
2018-07-06T09:39:02.666Z,9.30
2018-07-06T09:41:30.044Z,9.77
2018-07-06T09:43:57.390Z,10.20
2018-07-06T09:46:24.860Z,8.67
2018-07-06T09:48:52.206Z,8.50
2018-07-06T09:51:19.562Z,8.03
2018-07-06T09:53:46.921Z,8.63
2018-07-06T09:56:14.275Z,7.33
2018-07-06T09:58:41.646Z,8.83
2018-07-06T10:01:08.998Z,7.90
2018-07-06T10:03:36.339Z,7.37
2018-07-06T10:06:03.716Z,7.40
2018-07-06T10:08:31.486Z,7.10
2018-07-06T10:10:58.880Z,7.70
2018-07-06T10:13:26.250Z,7.40
2018-07-06T10:15:53.619Z,6.30
2018-07-06T10:18:21.084Z,7.30
2018-07-06T10:20:48.428Z,6.57
2018-07-06T10:23:15.786Z,5.77
2018-07-06T10:25:43.184Z,5.93
2018-07-06T10:28:17.580Z,5.70
2018-07-06T10:30:51.795Z,5.57
2018-07-06T10:33:19.300Z,5.37
2018-07-06T10:35:46.590Z,5.20
2018-07-06T10:38:14.063Z,5.53
2018-07-06T10:40:41.718Z,6.13
2018-07-06T10:43:09.085Z,5.50
2018-07-06T10:45:36.526Z,5.60
2018-07-06T10:48:03.933Z,5.37
2018-07-06T10:50:31.363Z,5.40
2018-07-06T10:52:58.731Z,4.73
2018-07-06T10:55:26.125Z,5.67
2018-07-06T10:57:53.468Z,5.80
2018-07-06T11:00:20.864Z,5.60
2018-07-06T11:02:48.215Z,5.60
2018-07-06T11:05:15.604Z,5.03
2018-07-06T11:07:42.946Z,4.97
2018-07-06T11:10:10.304Z,4.90
2018-07-06T11:12:37.632Z,4.93
2018-07-06T11:15:05.067Z,4.97
2018-07-06T11:17:32.448Z,4.90
2018-07-06T11:19:59.815Z,5.33
2018-07-06T11:22:27.182Z,4.90
2018-07-06T11:24:54.561Z,5.40
2018-07-06T11:27:21.908Z,5.63
2018-07-06T11:29:49.318Z,5.40
2018-07-06T11:32:16.676Z,4.70
2018-07-06T11:34:44.050Z,5.67
2018-07-06T11:37:11.405Z,5.37
2018-07-06T11:39:38.770Z,5.27
2018-07-06T11:42:06.125Z,4.87
2018-07-06T11:44:33.539Z,5.00
2018-07-06T11:47:00.959Z,5.10
2018-07-06T11:49:28.299Z,5.80
2018-07-06T11:51:55.666Z,4.90
2018-07-06T11:54:23.056Z,5.10
2018-07-06T11:56:50.414Z,5.67
2018-07-06T11:59:17.837Z,4.87
2018-07-06T12:01:45.310Z,5.27
2018-07-06T12:04:12.814Z,5.60
2018-07-06T12:06:40.135Z,5.10
2018-07-06T12:09:07.547Z,5.27
2018-07-06T12:11:34.927Z,5.90
2018-07-06T12:14:02.666Z,5.23
2018-07-06T12:16:30.318Z,5.53
2018-07-06T12:18:57.722Z,5.00
2018-07-06T12:21:25.473Z,5.10
2018-07-06T12:23:52.879Z,4.87
2018-07-06T12:26:20.294Z,5.00
2018-07-06T12:28:47.785Z,5.43
2018-07-06T12:31:15.189Z,5.03
2018-07-06T12:33:43.435Z,5.30
2018-07-06T12:36:10.869Z,5.17
2018-07-06T12:38:38.361Z,5.00
2018-07-06T12:41:06.159Z,5.43
2018-07-06T12:43:33.520Z,5.93
2018-07-06T12:46:01.001Z,5.37
2018-07-06T12:48:28.407Z,5.03
2018-07-06T12:50:55.766Z,5.40
2018-07-06T12:53:23.190Z,5.30
2018-07-06T12:55:50.574Z,5.50
2018-07-06T12:58:18.089Z,5.50
2018-07-06T13:00:45.403Z,5.60
2018-07-06T13:03:12.803Z,4.90
2018-07-06T13:05:40.215Z,5.57
2018-07-06T13:08:07.593Z,6.13
2018-07-06T13:10:34.971Z,5.67
2018-07-06T13:13:02.342Z,6.03
2018-07-06T13:15:29.726Z,5.90
2018-07-06T13:17:57.253Z,5.70
2018-07-06T13:20:24.632Z,5.80
2018-07-06T13:22:52.118Z,4.97
2018-07-06T13:25:19.514Z,5.37
2018-07-06T13:27:46.857Z,5.17
2018-07-06T13:30:14.226Z,4.97
2018-07-06T13:32:41.589Z,5.20
2018-07-06T13:35:08.938Z,5.07
2018-07-06T13:37:36.296Z,5.67
2018-07-06T13:40:03.691Z,6.13
2018-07-06T13:42:31.066Z,5.43
2018-07-06T13:44:58.395Z,5.40
2018-07-06T13:47:25.850Z,5.50
2018-07-06T13:49:53.219Z,5.60
2018-07-06T13:52:20.540Z,5.90
2018-07-06T13:54:47.923Z,6.20
2018-07-06T13:57:15.269Z,5.47
2018-07-06T13:59:42.605Z,5.50
2018-07-06T14:02:10.291Z,6.00
2018-07-06T14:04:37.714Z,5.80
2018-07-06T14:07:05.071Z,5.20
2018-07-06T14:09:32.485Z,5.93
2018-07-06T14:11:59.870Z,5.70
2018-07-06T14:14:27.275Z,5.00
2018-07-06T14:16:54.648Z,5.17
2018-07-06T14:19:22.058Z,5.60
2018-07-06T14:21:49.448Z,6.10
2018-07-06T14:24:16.795Z,5.90
2018-07-06T14:26:44.205Z,5.60
2018-07-06T14:29:11.592Z,5.33
2018-07-06T14:31:38.988Z,5.23
2018-07-06T14:34:06.378Z,5.10
2018-07-06T14:36:33.749Z,5.00
2018-07-06T14:39:01.147Z,4.83
2018-07-06T14:41:28.533Z,4.50
2018-07-06T14:43:55.909Z,5.63
2018-07-06T14:46:23.278Z,5.17
2018-07-06T14:48:50.675Z,4.43
2018-07-06T14:51:18.030Z,5.30
2018-07-06T14:53:45.413Z,4.60
2018-07-06T14:56:17.103Z,4.70
2018-07-06T14:58:44.599Z,4.73
2018-07-06T15:01:11.969Z,5.70
2018-07-06T15:03:39.382Z,4.60
2018-07-06T15:06:06.822Z,4.10
2018-07-06T15:08:34.292Z,4.77
2018-07-06T15:11:01.698Z,4.67
2018-07-06T15:13:29.071Z,4.20
2018-07-06T15:15:56.508Z,4.80
2018-07-06T15:18:23.900Z,4.30
2018-07-06T15:20:51.254Z,4.43
2018-07-06T15:23:18.625Z,4.03
2018-07-06T15:25:46.092Z,4.57
2018-07-06T15:28:13.495Z,4.07
2018-07-06T15:30:41.035Z,3.90
2018-07-06T15:33:08.378Z,3.60
2018-07-06T15:35:35.735Z,3.53
2018-07-06T15:38:03.102Z,3.13
2018-07-06T15:40:30.476Z,3.90
2018-07-06T15:42:57.919Z,3.73
2018-07-06T15:45:25.310Z,3.00
2018-07-06T15:47:52.707Z,3.90
2018-07-06T15:50:20.070Z,3.73
2018-07-06T15:52:47.425Z,3.57
2018-07-06T15:55:14.812Z,3.70
2018-07-06T15:57:42.228Z,4.27
2018-07-06T16:00:09.656Z,2.80
2018-07-06T16:02:37.010Z,3.27
2018-07-06T16:05:04.609Z,3.17
2018-07-06T16:07:31.963Z,2.97
2018-07-06T16:09:59.338Z,3.53
2018-07-06T16:12:26.741Z,2.80
2018-07-06T16:14:54.098Z,2.80
2018-07-06T16:17:21.482Z,2.80
2018-07-06T16:19:48.834Z,2.73
2018-07-06T16:22:16.250Z,3.30
2018-07-06T16:24:46.108Z,2.70
2018-07-06T16:27:15.670Z,2.30
2018-07-06T16:29:45.655Z,2.50
2018-07-06T16:32:14.808Z,3.30
2018-07-06T16:34:45.034Z,2.90
2018-07-06T16:37:12.518Z,2.60
2018-07-06T16:39:39.963Z,2.87
2018-07-06T16:42:09.182Z,2.97
2018-07-06T16:44:38.956Z,2.67
2018-07-06T16:47:07.478Z,2.27
2018-07-06T16:49:34.905Z,2.10
2018-07-06T16:52:02.321Z,3.10
2018-07-06T16:54:29.730Z,2.50
2018-07-06T16:56:57.072Z,2.83
2018-07-06T16:59:24.469Z,2.30
2018-07-06T17:01:51.833Z,2.80
2018-07-06T17:04:19.186Z,2.87
2018-07-06T17:06:46.635Z,2.73
2018-07-06T17:09:14.198Z,2.40
2018-07-06T17:11:41.553Z,2.77
2018-07-06T17:14:08.935Z,2.50
2018-07-06T17:16:36.294Z,2.17
2018-07-06T17:19:03.665Z,2.57
2018-07-06T17:21:31.071Z,2.10
2018-07-06T17:23:58.410Z,2.70
2018-07-06T17:26:25.746Z,2.20
2018-07-06T17:28:53.138Z,2.43
2018-07-06T17:31:20.465Z,2.67
2018-07-06T17:33:47.796Z,2.60
2018-07-06T17:36:15.184Z,2.33
2018-07-06T17:38:42.613Z,2.40
2018-07-06T17:41:10.029Z,2.30
2018-07-06T17:43:37.448Z,2.27
2018-07-06T17:46:04.831Z,2.30
2018-07-06T17:49:56.430Z,2.23
2018-07-06T17:52:23.825Z,2.00
2018-07-06T17:54:51.291Z,1.90
2018-07-06T17:57:18.705Z,2.30
2018-07-06T17:59:46.113Z,2.53
2018-07-06T18:02:13.443Z,2.70
2018-07-06T18:04:40.785Z,2.20
2018-07-06T18:07:08.173Z,2.33
2018-07-06T18:09:35.751Z,2.63
2018-07-06T18:12:03.163Z,2.30
2018-07-06T18:14:30.577Z,2.17
2018-07-06T18:16:58.039Z,2.50
2018-07-06T18:19:25.388Z,2.30
2018-07-06T18:21:52.878Z,2.57
2018-07-06T18:24:20.241Z,2.87
2018-07-06T18:26:47.585Z,2.40
2018-07-06T18:29:14.976Z,2.70
2018-07-06T18:31:42.349Z,2.63
2018-07-06T18:34:09.710Z,2.90
2018-07-06T18:36:37.121Z,2.57
2018-07-06T18:39:05.112Z,2.70
2018-07-06T18:41:32.501Z,2.57
2018-07-06T18:43:59.856Z,2.47
2018-07-06T18:46:27.239Z,2.43
2018-07-06T18:48:54.590Z,2.20
2018-07-06T18:51:21.996Z,2.70
2018-07-06T18:53:49.430Z,2.50
2018-07-06T18:56:16.973Z,2.70
2018-07-06T18:58:44.349Z,2.20
2018-07-06T19:01:11.753Z,2.80
2018-07-06T19:03:39.483Z,2.40
2018-07-06T19:06:06.888Z,2.30
2018-07-06T19:08:34.386Z,2.23
2018-07-06T19:11:02.070Z,2.40
2018-07-06T19:13:29.487Z,2.30
2018-07-06T19:15:56.845Z,2.47
2018-07-06T19:18:24.257Z,2.50
2018-07-06T19:20:51.669Z,2.53
2018-07-06T19:23:19.018Z,2.50
2018-07-06T19:25:46.395Z,2.40
2018-07-06T19:28:13.727Z,2.70
2018-07-06T19:30:41.121Z,2.60
2018-07-06T19:33:08.514Z,3.17
2018-07-06T19:35:35.918Z,2.33
2018-07-06T19:38:03.312Z,2.30
2018-07-06T19:40:30.702Z,2.20
2018-07-06T19:42:58.082Z,2.30
2018-07-06T19:45:25.438Z,2.80
2018-07-06T19:47:52.806Z,2.63
2018-07-06T19:50:20.153Z,2.30
2018-07-06T19:52:47.537Z,2.43
2018-07-06T19:55:15.073Z,2.40
2018-07-06T19:57:42.488Z,2.50
2018-07-06T20:00:09.879Z,2.27
2018-07-06T20:02:37.238Z,2.60
2018-07-06T20:05:04.641Z,2.30
2018-07-06T20:07:32.182Z,2.80
2018-07-06T20:09:59.533Z,2.37
2018-07-06T20:12:26.882Z,2.63
2018-07-06T20:14:54.206Z,3.40
2018-07-06T20:17:21.617Z,2.60
2018-07-06T20:19:48.959Z,2.80
2018-07-06T20:22:16.778Z,2.30
2018-07-06T20:24:44.184Z,2.40
2018-07-06T20:27:11.544Z,3.00
2018-07-06T20:29:38.879Z,2.97
2018-07-06T20:32:06.309Z,2.83
2018-07-06T20:34:33.722Z,2.60
2018-07-06T20:37:01.126Z,3.40
2018-07-06T20:39:28.506Z,2.60
2018-07-06T20:41:55.878Z,2.90
2018-07-06T20:44:23.189Z,2.93
2018-07-06T20:46:50.573Z,2.72
2018-07-06T20:49:18.026Z,2.83
2018-07-06T20:51:45.570Z,2.90
2018-07-06T20:54:13.109Z,2.80
2018-07-06T20:56:41.090Z,3.15
2018-07-06T20:59:08.485Z,2.80
2018-07-06T21:01:35.965Z,3.35
2018-07-06T21:04:03.382Z,3.70
2018-07-06T21:06:30.733Z,2.77
2018-07-06T21:08:58.088Z,3.02
2018-07-06T21:11:25.546Z,3.30
2018-07-06T21:13:52.903Z,3.33
2018-07-06T21:16:20.763Z,3.30
2018-07-06T21:18:48.153Z,2.55
2018-07-06T21:21:15.576Z,3.20
2018-07-06T21:23:42.893Z,2.45
2018-07-06T21:26:10.283Z,3.60
2018-07-06T21:28:37.622Z,4.75
2018-07-06T21:31:05.095Z,3.02
2018-07-06T21:33:32.470Z,2.80
2018-07-06T21:35:59.867Z,3.30
2018-07-06T21:38:27.205Z,3.83
2018-07-06T21:40:54.644Z,3.10
2018-07-06T21:43:22.073Z,3.20
2018-07-06T21:45:49.419Z,3.10
2018-07-06T21:48:16.801Z,3.27
2018-07-06T21:50:44.913Z,3.83
2018-07-06T21:53:12.276Z,3.40
2018-07-06T21:55:39.718Z,3.37
2018-07-06T21:58:07.083Z,3.60
2018-07-06T22:00:37.765Z,3.87
2018-07-06T22:03:05.435Z,3.05
2018-07-06T22:05:33.660Z,3.75
2018-07-06T22:08:02.223Z,3.30
2018-07-06T22:10:30.152Z,3.30
2018-07-06T22:12:57.490Z,4.30
2018-07-06T22:15:29.162Z,4.10
2018-07-06T22:17:56.626Z,3.15
2018-07-06T22:20:23.977Z,4.30
2018-07-06T22:22:51.327Z,4.60
2018-07-06T22:25:18.690Z,3.20
2018-07-06T22:27:52.696Z,4.03
2018-07-06T22:30:20.329Z,3.83
2018-07-06T22:32:47.661Z,3.95
2018-07-06T22:35:15.185Z,4.75
2018-07-06T22:37:42.571Z,3.92
2018-07-06T22:40:09.921Z,4.05
2018-07-06T22:42:37.261Z,4.42
2018-07-06T22:45:04.625Z,3.70
2018-07-06T22:47:32.011Z,4.30
2018-07-06T22:49:59.337Z,3.80
2018-07-06T22:52:26.754Z,4.45
2018-07-06T22:54:54.121Z,4.00
2018-07-06T22:57:21.455Z,4.10
2018-07-06T22:59:48.858Z,3.92
2018-07-06T23:02:16.205Z,4.30
2018-07-06T23:04:43.641Z,4.92
2018-07-06T23:07:11.025Z,5.37
2018-07-06T23:09:38.376Z,5.15
2018-07-06T23:12:05.990Z,4.37
2018-07-06T23:14:33.343Z,4.70
2018-07-06T23:17:00.717Z,4.47
2018-07-06T23:19:28.148Z,4.80
2018-07-06T23:21:55.561Z,4.60
2018-07-06T23:24:22.918Z,4.40
2018-07-06T23:26:50.231Z,4.22
2018-07-06T23:29:17.574Z,4.35
2018-07-06T23:31:44.938Z,3.87
2018-07-06T23:34:12.328Z,4.58
2018-07-06T23:36:39.670Z,4.53
2018-07-06T23:39:08.261Z,4.60
2018-07-06T23:41:36.350Z,4.15
2018-07-06T23:44:03.749Z,4.12
2018-07-06T23:46:31.142Z,6.08
2018-07-06T23:48:58.574Z,4.58
2018-07-06T23:51:25.963Z,4.83
2018-07-06T23:53:53.308Z,4.08
2018-07-06T23:56:20.696Z,5.17
2018-07-06T23:58:48.023Z,3.83
